createdAt,value
2019-05-25T00:03:37.962Z,29.10
2019-05-25T00:08:43.022Z,26.10
2019-05-25T00:13:48.072Z,25.00
2019-05-25T00:18:53.105Z,23.05
2019-05-25T00:24:11.218Z,22.40
2019-05-25T00:29:04.876Z,21.60
2019-05-25T00:34:09.918Z,20.95
2019-05-25T00:39:15.006Z,20.30
2019-05-25T00:44:20.006Z,21.20
2019-05-25T00:49:25.041Z,21.90
2019-05-25T00:54:30.208Z,20.00
2019-05-25T00:59:35.282Z,19.70
2019-05-25T01:04:40.289Z,19.45
2019-05-25T01:09:45.341Z,18.60
2019-05-25T01:14:50.390Z,19.45
2019-05-25T01:19:55.446Z,19.15
2019-05-25T01:25:00.406Z,18.35
2019-05-25T01:30:05.442Z,18.70
2019-05-25T01:35:10.378Z,20.20
2019-05-25T01:40:15.445Z,19.10
2019-05-25T01:45:20.474Z,19.60
2019-05-25T01:50:25.420Z,18.85
2019-05-25T01:55:30.470Z,18.80
2019-05-25T02:00:35.436Z,17.75
2019-05-25T02:05:40.604Z,18.50
2019-05-25T02:10:45.739Z,19.00
2019-05-25T02:15:50.772Z,18.30
2019-05-25T02:20:55.941Z,19.65
2019-05-25T02:26:00.974Z,17.80
2019-05-25T02:31:06.140Z,18.10
2019-05-25T02:36:11.190Z,18.10
2019-05-25T02:41:16.239Z,18.40
2019-05-25T02:46:21.276Z,17.95
2019-05-25T02:51:26.326Z,16.70
2019-05-25T02:56:31.582Z,17.10
2019-05-25T03:01:36.638Z,17.00
2019-05-25T03:06:41.679Z,17.70
2019-05-25T03:11:46.750Z,17.20
2019-05-25T03:16:51.789Z,17.23
2019-05-25T03:21:56.852Z,17.50
2019-05-25T03:27:01.899Z,17.80
2019-05-25T03:32:06.920Z,17.85
2019-05-25T03:37:11.988Z,17.50
2019-05-25T03:42:17.035Z,17.20
2019-05-25T03:47:22.082Z,17.50
2019-05-25T03:52:27.121Z,17.60
2019-05-25T03:57:32.184Z,18.15
2019-05-25T04:02:37.235Z,17.97
2019-05-25T04:07:42.286Z,18.60
2019-05-25T04:12:47.320Z,17.60
2019-05-25T04:18:16.337Z,17.45
2019-05-25T04:23:21.391Z,16.80
2019-05-25T04:28:26.438Z,17.20
2019-05-25T04:33:31.486Z,17.40
2019-05-25T04:38:36.539Z,17.20
2019-05-25T04:43:41.584Z,16.75
2019-05-25T04:48:46.635Z,17.20
2019-05-25T04:53:54.131Z,17.05
2019-05-25T04:58:59.193Z,17.15
2019-05-25T05:04:04.900Z,17.55
2019-05-25T05:09:09.990Z,17.40
2019-05-25T05:14:16.488Z,16.95
2019-05-25T05:19:21.537Z,16.70
2019-05-25T05:24:26.599Z,17.05
2019-05-25T05:29:31.632Z,17.90
2019-05-25T05:34:36.689Z,16.50
2019-05-25T05:39:41.743Z,16.90
2019-05-25T05:44:46.798Z,17.40
2019-05-25T05:49:51.819Z,17.40
2019-05-25T05:54:56.881Z,16.90
2019-05-25T06:00:01.948Z,17.60
2019-05-25T06:05:07.073Z,16.60
2019-05-25T06:10:12.132Z,16.00
2019-05-25T06:15:17.179Z,18.50
2019-05-25T06:20:22.229Z,17.40
2019-05-25T06:25:27.413Z,18.40
2019-05-25T06:30:32.555Z,18.90
2019-05-25T06:35:37.582Z,19.10
2019-05-25T06:40:42.625Z,19.90
2019-05-25T06:45:47.693Z,18.75
2019-05-25T06:50:52.747Z,19.40
2019-05-25T06:55:57.771Z,20.00
2019-05-25T07:01:02.827Z,19.30
2019-05-25T07:06:07.910Z,19.70
2019-05-25T07:11:13.164Z,20.70
2019-05-25T07:16:18.294Z,21.05
2019-05-25T07:21:23.336Z,19.70
2019-05-25T07:26:28.372Z,20.90
2019-05-25T07:31:33.431Z,22.25
2019-05-25T07:36:38.488Z,21.40
2019-05-25T07:41:43.525Z,21.50
2019-05-25T07:46:48.598Z,20.70
2019-05-25T07:51:53.749Z,21.95
2019-05-25T07:56:58.804Z,20.60
2019-05-25T08:02:03.823Z,21.90
2019-05-25T08:07:08.887Z,21.40
2019-05-25T08:12:13.894Z,21.90
2019-05-25T08:17:18.992Z,22.20
2019-05-25T08:22:24.133Z,22.00
2019-05-25T08:27:29.184Z,21.90
2019-05-25T08:32:34.211Z,23.30
2019-05-25T08:37:39.266Z,24.00
2019-05-25T08:42:44.317Z,24.05
2019-05-25T08:47:49.376Z,24.65
2019-05-25T08:52:54.426Z,25.70
2019-05-25T08:57:59.460Z,24.80
2019-05-25T09:03:04.529Z,22.90
2019-05-25T09:08:09.574Z,24.10
2019-05-25T09:13:14.610Z,23.70
2019-05-25T09:18:19.671Z,24.90
2019-05-25T09:23:24.710Z,25.20
2019-05-25T09:28:29.860Z,25.70
2019-05-25T09:33:34.947Z,25.20
2019-05-25T09:38:43.118Z,26.55
2019-05-25T09:43:46.762Z,26.17
2019-05-25T09:48:51.903Z,26.30
2019-05-25T09:53:56.962Z,25.80
2019-05-25T09:59:02.055Z,25.30
2019-05-25T10:04:07.061Z,25.70
2019-05-25T10:09:12.113Z,24.80
2019-05-25T10:14:17.144Z,29.90
2019-05-25T10:19:40.217Z,27.60
2019-05-25T10:24:45.188Z,28.83
2019-05-25T10:29:50.114Z,220.10
2019-05-25T10:34:55.168Z,168.97
2019-05-25T10:40:00.118Z,311.85
2019-05-25T10:45:05.159Z,270.67
2019-05-25T10:50:10.347Z,291.13
2019-05-25T10:55:15.254Z,220.93
2019-05-25T11:00:20.201Z,220.97
2019-05-25T11:05:25.161Z,224.50
2019-05-25T11:10:30.297Z,159.90
2019-05-25T11:15:35.260Z,266.13
2019-05-25T11:20:41.067Z,213.57
2019-05-25T11:25:46.183Z,224.60
2019-05-25T11:30:51.221Z,290.40
2019-05-25T11:35:56.477Z,168.70
2019-05-25T11:41:01.964Z,184.60
2019-05-25T11:46:07.898Z,275.85
2019-05-25T11:51:13.745Z,193.75
2019-05-25T11:56:19.774Z,213.50
2019-05-25T12:01:25.334Z,324.90
2019-05-25T12:06:30.689Z,432.30
2019-05-25T12:11:36.233Z,461.20
2019-05-25T12:16:41.389Z,367.60
2019-05-25T12:21:46.431Z,304.80
2019-05-25T12:26:52.764Z,319.60
2019-05-25T12:32:04.079Z,274.50
2019-05-25T12:37:04.648Z,382.10
2019-05-25T12:42:10.215Z,444.50
2019-05-25T12:47:15.679Z,562.60
2019-05-25T12:52:22.057Z,592.10
2019-05-25T12:57:27.123Z,539.25
2019-05-25T13:02:32.260Z,507.25
2019-05-25T13:07:37.317Z,565.70
2019-05-25T13:12:42.400Z,528.40
2019-05-25T13:17:47.530Z,425.75
2019-05-25T13:22:52.637Z,367.60
2019-05-25T13:27:57.706Z,302.00
2019-05-25T13:33:02.670Z,232.60
2019-05-25T13:38:07.709Z,193.15
2019-05-25T13:48:17.564Z,123.70
2019-05-25T13:53:22.538Z,218.07
2019-05-25T13:58:27.928Z,249.33
2019-05-25T14:03:37.140Z,163.03
2019-05-25T14:08:42.184Z,124.43
2019-05-25T14:13:47.099Z,364.77
2019-05-25T14:18:52.086Z,284.60
2019-05-25T14:23:57.021Z,281.30
2019-05-25T14:29:01.926Z,197.10
2019-05-25T14:34:06.980Z,272.37
2019-05-25T14:39:12.006Z,334.83
2019-05-25T14:44:17.022Z,249.07
2019-05-25T14:49:24.701Z,196.87
2019-05-25T14:54:29.671Z,499.77
2019-05-25T14:59:34.721Z,648.50
2019-05-25T15:04:39.676Z,642.33
2019-05-25T15:09:44.615Z,520.47
2019-05-25T15:14:49.615Z,523.67
2019-05-25T15:19:55.444Z,704.73
2019-05-25T15:25:00.384Z,710.08
2019-05-25T15:30:07.381Z,626.97
2019-05-25T15:35:12.526Z,566.70
2019-05-25T15:40:17.588Z,542.10
2019-05-25T15:45:22.648Z,541.50
2019-05-25T15:50:27.673Z,514.27
2019-05-25T15:55:33.675Z,494.80
2019-05-25T16:00:39.782Z,462.25
2019-05-25T16:05:47.454Z,518.13
2019-05-25T16:15:56.764Z,455.03
2019-05-25T16:21:15.482Z,576.95
2019-05-25T16:26:21.294Z,626.37
2019-05-25T16:31:26.294Z,651.05
2019-05-25T16:36:32.694Z,671.57
2019-05-25T16:41:37.823Z,611.85
2019-05-25T16:46:42.771Z,562.37
2019-05-25T16:51:47.731Z,538.03
2019-05-25T16:56:52.868Z,520.20
2019-05-25T17:01:57.814Z,422.50
2019-05-25T17:07:02.873Z,354.33
2019-05-25T17:12:07.810Z,536.97
2019-05-25T17:17:12.875Z,636.90
2019-05-25T17:22:17.809Z,570.13
2019-05-25T17:27:22.766Z,495.20
2019-05-25T17:32:27.700Z,426.43
2019-05-25T17:37:32.655Z,431.97
2019-05-25T17:42:37.600Z,662.90
2019-05-25T17:47:42.549Z,592.30
2019-05-25T17:52:48.924Z,589.63
2019-05-25T17:57:53.872Z,674.67
2019-05-25T18:02:58.921Z,692.63
2019-05-25T18:08:04.170Z,539.20
2019-05-25T18:13:09.249Z,517.93
2019-05-25T18:18:14.278Z,510.77
2019-05-25T18:23:19.347Z,430.60
2019-05-25T18:28:24.900Z,609.10
2019-05-25T18:33:30.253Z,685.20
2019-05-25T18:38:35.201Z,583.50
2019-05-25T18:43:40.139Z,719.80
2019-05-25T18:48:45.084Z,701.40
2019-05-25T18:53:50.033Z,524.67
2019-05-25T18:58:56.005Z,434.77
2019-05-25T19:04:01.220Z,477.63
2019-05-25T19:09:06.200Z,625.67
2019-05-25T19:14:11.250Z,586.93
2019-05-25T19:19:19.555Z,630.60
2019-05-25T19:24:24.543Z,723.05
2019-05-25T19:29:31.049Z,528.20
2019-05-25T19:34:36.303Z,647.95
2019-05-25T19:39:41.675Z,516.40
2019-05-25T19:44:47.323Z,538.10
2019-05-25T19:49:52.274Z,700.80
2019-05-25T19:54:57.290Z,715.67
2019-05-25T20:00:02.662Z,742.03
2019-05-25T20:05:16.177Z,679.50
2019-05-25T20:10:16.125Z,772.83
2019-05-25T20:15:21.269Z,694.80
2019-05-25T20:20:26.295Z,589.80
2019-05-25T20:25:31.489Z,516.60
2019-05-25T20:30:36.887Z,452.95
2019-05-25T20:35:41.869Z,611.70
2019-05-25T20:40:46.918Z,519.00
2019-05-25T20:45:52.222Z,478.40
2019-05-25T20:50:57.672Z,411.00
2019-05-25T20:56:03.124Z,623.20
2019-05-25T21:01:08.798Z,562.75
2019-05-25T21:06:14.213Z,497.50
2019-05-25T21:11:19.282Z,481.70
2019-05-25T21:16:24.297Z,496.25
2019-05-25T21:21:31.748Z,655.20
2019-05-25T21:26:36.906Z,512.65
2019-05-25T21:31:42.229Z,475.90
2019-05-25T21:36:47.701Z,390.00
2019-05-25T21:41:53.666Z,305.00
2019-05-25T21:46:58.724Z,238.45
2019-05-25T21:52:05.459Z,233.60
2019-05-25T21:57:10.561Z,153.35
2019-05-25T22:02:15.838Z,125.20
2019-05-25T22:07:20.959Z,111.90
2019-05-25T22:12:26.138Z,94.00
2019-05-25T22:17:31.482Z,75.70
2019-05-25T22:23:20.551Z,301.70
2019-05-25T22:28:25.613Z,230.10
2019-05-25T22:33:31.685Z,148.60
2019-05-25T22:38:36.824Z,177.80
2019-05-25T22:43:42.255Z,266.80
2019-05-25T22:48:47.339Z,683.80
2019-05-25T22:53:52.538Z,748.95
2019-05-25T22:58:57.620Z,762.30
2019-05-25T23:04:02.673Z,753.60
2019-05-25T23:09:07.724Z,752.30
2019-05-25T23:14:12.790Z,798.60
2019-05-25T23:19:17.933Z,673.00
2019-05-25T23:24:23.092Z,683.15
2019-05-25T23:29:28.243Z,708.85
2019-05-25T23:34:33.403Z,727.90
2019-05-25T23:39:38.757Z,686.60
2019-05-25T23:44:43.910Z,625.70
2019-05-25T23:49:50.594Z,510.50
2019-05-25T23:54:55.647Z,441.20
